createdAt,value
2023-05-12T00:01:31.543Z,100689.38
2023-05-12T00:03:58.304Z,100663.69
2023-05-12T00:06:24.986Z,100662.13
2023-05-12T00:08:51.541Z,100679.59
2023-05-12T00:11:18.490Z,100680.59
2023-05-12T00:13:45.235Z,100674.44
2023-05-12T00:16:11.889Z,100672.94
2023-05-12T00:18:39.857Z,100609.81
2023-05-12T00:21:06.485Z,100665.81
2023-05-12T00:23:33.021Z,100669.22
2023-05-12T00:25:59.624Z,100663.25
2023-05-12T00:28:26.183Z,100663.94
2023-05-12T00:30:52.760Z,100661.28
2023-05-12T00:33:19.302Z,100631.13
2023-05-12T00:35:47.279Z,100662.94
2023-05-12T00:38:13.900Z,100652.34
2023-05-12T00:40:40.821Z,100649.75
2023-05-12T00:43:07.447Z,100665.59
2023-05-12T00:45:34.354Z,100663.94
2023-05-12T00:48:01.117Z,100653.09
2023-05-12T00:50:27.846Z,100656.25
2023-05-12T00:52:56.791Z,100646.56
2023-05-12T00:55:23.385Z,100638.53
2023-05-12T00:57:49.965Z,100643.56
2023-05-12T01:00:17.739Z,100641.75
2023-05-12T01:02:46.908Z,100648.31
2023-05-12T01:05:14.079Z,100642.63
2023-05-12T01:07:42.070Z,100630.22
2023-05-12T01:10:19.160Z,100636.88
2023-05-12T01:12:46.415Z,100633.84
2023-05-12T01:15:13.155Z,100626.44
2023-05-12T01:17:57.304Z,100618.75
2023-05-12T01:20:26.689Z,100627.94
2023-05-12T01:22:54.844Z,100634.75
2023-05-12T01:25:29.029Z,100634.75
2023-05-12T01:27:57.625Z,100630.28
2023-05-12T01:30:24.878Z,100632.09
2023-05-12T01:32:52.983Z,100617.31
2023-05-12T01:35:19.813Z,100623.00
2023-05-12T01:37:56.775Z,100576.34
2023-05-12T01:40:23.578Z,100624.97
2023-05-12T01:42:51.001Z,100623.97
2023-05-12T01:45:20.440Z,100623.81
2023-05-12T01:47:48.004Z,100598.66
2023-05-12T01:50:14.589Z,100602.38
2023-05-12T01:52:41.312Z,100627.03
2023-05-12T01:55:11.842Z,100604.88
2023-05-12T01:57:45.310Z,100617.06
2023-05-12T02:00:12.680Z,100607.41
2023-05-12T02:02:43.484Z,100619.91
2023-05-12T02:05:12.240Z,100626.19
2023-05-12T02:07:39.642Z,100617.41
2023-05-12T02:10:07.838Z,100605.22
2023-05-12T02:12:34.402Z,100622.38
2023-05-12T02:15:01.299Z,100617.25
2023-05-12T02:17:28.876Z,100612.25
2023-05-12T02:20:00.196Z,100614.75
2023-05-12T02:22:26.842Z,100612.94
2023-05-12T02:24:53.575Z,100616.41
2023-05-12T02:27:20.679Z,100611.94
2023-05-12T02:29:47.715Z,100611.94
2023-05-12T02:32:15.266Z,100612.75
2023-05-12T02:34:45.529Z,100606.09
2023-05-12T02:37:13.849Z,100607.16
2023-05-12T02:39:41.197Z,100613.81
2023-05-12T02:42:07.895Z,100610.94
2023-05-12T02:44:34.649Z,100609.91
2023-05-12T02:47:01.612Z,100575.19
2023-05-12T02:49:28.794Z,100609.06
2023-05-12T02:51:55.662Z,100609.22
2023-05-12T02:54:23.761Z,100609.22
2023-05-12T02:56:50.442Z,100608.53
2023-05-12T02:59:16.956Z,100603.06
2023-05-12T03:01:43.570Z,100591.72
2023-05-12T03:04:10.530Z,100611.31
2023-05-12T03:06:37.302Z,100616.94
2023-05-12T03:09:04.200Z,100592.78
2023-05-12T03:11:32.415Z,100601.31
2023-05-12T03:13:59.020Z,100613.59
2023-05-12T03:16:26.327Z,100603.97
2023-05-12T03:18:53.008Z,100565.25
2023-05-12T03:21:19.746Z,100612.94
2023-05-12T03:23:46.283Z,100616.44
2023-05-12T03:26:12.902Z,100606.13
2023-05-12T03:28:40.895Z,100569.59
2023-05-12T03:31:07.539Z,100612.72
2023-05-12T03:33:34.111Z,100582.97
2023-05-12T03:36:00.698Z,100616.13
2023-05-12T03:38:27.361Z,100616.25
2023-05-12T03:41:03.387Z,100620.22
2023-05-12T03:43:29.983Z,100614.53
2023-05-12T03:45:57.943Z,100612.97
2023-05-12T03:48:24.878Z,100602.44
2023-05-12T03:50:51.605Z,100604.88
2023-05-12T03:53:18.142Z,100612.03
2023-05-12T03:55:44.686Z,100612.88
2023-05-12T03:58:11.350Z,100621.16
2023-05-12T04:00:38.905Z,100618.63
2023-05-12T04:03:08.015Z,100622.44
2023-05-12T04:05:34.601Z,100627.75
2023-05-12T04:08:01.139Z,100620.06
2023-05-12T04:10:29.126Z,100630.69
2023-05-12T04:12:56.827Z,100626.22
2023-05-12T04:15:24.905Z,100630.16
2023-05-12T04:17:51.531Z,100633.59
2023-05-12T04:20:20.866Z,100628.91
2023-05-12T04:22:47.779Z,100631.25
2023-05-12T04:25:14.632Z,100631.97
2023-05-12T04:27:41.301Z,100633.47
2023-05-12T04:30:08.900Z,100630.97
2023-05-12T04:32:37.985Z,100636.81
2023-05-12T04:35:06.051Z,100643.09
2023-05-12T04:37:34.090Z,100639.31
2023-05-12T04:40:01.318Z,100646.13
2023-05-12T04:42:28.308Z,100651.97
2023-05-12T04:44:55.595Z,100545.25
2023-05-12T04:47:22.306Z,100651.66
2023-05-12T04:49:48.864Z,100655.84
2023-05-12T04:52:15.377Z,100660.31
2023-05-12T04:54:43.366Z,100655.59
2023-05-12T04:57:09.928Z,100671.44
2023-05-12T04:59:36.568Z,100672.41
2023-05-12T05:02:03.481Z,100658.25
2023-05-12T05:04:30.285Z,100675.06
2023-05-12T05:06:56.891Z,100681.19
2023-05-12T05:09:24.580Z,100682.63
2023-05-12T05:11:52.653Z,100676.50
2023-05-12T05:14:19.259Z,100683.69
2023-05-12T05:16:45.889Z,100687.16
2023-05-12T05:19:20.953Z,100693.47
2023-05-12T05:21:52.529Z,100688.69
2023-05-12T05:24:19.796Z,100694.50
2023-05-12T05:26:46.365Z,100688.09
2023-05-12T05:29:14.460Z,100700.13
2023-05-12T05:31:41.064Z,100699.00
2023-05-12T05:34:07.760Z,100699.81
2023-05-12T05:36:34.874Z,100672.03
2023-05-12T05:39:01.394Z,100703.53
2023-05-12T05:41:27.991Z,100704.09
2023-05-12T05:43:54.677Z,100710.38
2023-05-12T05:46:22.650Z,100710.06
2023-05-12T05:48:49.353Z,100714.09
2023-05-12T05:51:16.771Z,100715.19
2023-05-12T05:53:43.387Z,100722.28
2023-05-12T05:56:11.255Z,100729.34
2023-05-12T05:58:37.903Z,100726.78
2023-05-12T06:01:05.100Z,100726.44
2023-05-12T06:03:33.569Z,100729.19
2023-05-12T06:06:00.312Z,100742.78
2023-05-12T06:08:26.918Z,100737.31
2023-05-12T06:10:54.335Z,100746.50
2023-05-12T06:13:20.934Z,100748.53
2023-05-12T06:15:47.595Z,100755.19
2023-05-12T06:18:14.111Z,100762.03
2023-05-12T06:20:42.063Z,100755.28
2023-05-12T06:23:08.585Z,100768.38
2023-05-12T06:25:35.516Z,100772.09
2023-05-12T06:28:02.043Z,100773.59
2023-05-12T06:30:28.802Z,100770.81
2023-05-12T06:32:55.452Z,100773.97
2023-05-12T06:35:22.320Z,100760.69
2023-05-12T06:37:50.405Z,100773.75
2023-05-12T06:40:17.548Z,100771.78
2023-05-12T06:42:44.226Z,100750.06
2023-05-12T06:45:11.415Z,100775.00
2023-05-12T06:47:38.036Z,100738.84
2023-05-12T06:50:05.668Z,100784.75
2023-05-12T06:52:32.264Z,100765.56
2023-05-12T06:55:00.299Z,100789.09
2023-05-12T06:57:26.930Z,100785.94
2023-05-12T06:59:53.688Z,100790.97
2023-05-12T07:02:20.417Z,100759.34
2023-05-12T07:04:47.131Z,100791.38
2023-05-12T07:07:13.647Z,100792.03
2023-05-12T07:09:40.185Z,100800.88
2023-05-12T07:12:08.371Z,100801.09
2023-05-12T07:14:34.975Z,100787.84
2023-05-12T07:17:01.496Z,100795.63
2023-05-12T07:19:28.161Z,100798.81
2023-05-12T07:21:54.707Z,100797.66
2023-05-12T07:24:21.387Z,100803.69
2023-05-12T07:26:47.951Z,100807.69
2023-05-12T07:29:15.888Z,100810.84
2023-05-12T07:31:42.497Z,100815.91
2023-05-12T07:34:09.185Z,100818.91
2023-05-12T07:36:35.699Z,100815.94
2023-05-12T07:39:02.398Z,100815.91
2023-05-12T07:41:28.934Z,100823.34
2023-05-12T07:43:55.499Z,100818.69
2023-05-12T07:46:23.380Z,100825.91
2023-05-12T07:48:49.965Z,100824.25
2023-05-12T07:51:16.477Z,100826.97
2023-05-12T07:53:43.083Z,100824.94
2023-05-12T07:56:09.587Z,100812.97
2023-05-12T07:58:36.199Z,100834.63
2023-05-12T08:01:02.726Z,100829.66
2023-05-12T08:03:30.793Z,100829.00
2023-05-12T08:05:57.287Z,100825.19
2023-05-12T08:08:23.836Z,100827.84
2023-05-12T08:10:50.594Z,100830.69
2023-05-12T08:13:17.275Z,100836.38
2023-05-12T08:15:43.775Z,100830.06
2023-05-12T08:18:10.355Z,100836.34
2023-05-12T08:20:38.332Z,100838.06
2023-05-12T08:23:04.930Z,100840.34
2023-05-12T08:25:31.767Z,100834.00
2023-05-12T08:27:58.310Z,100836.63
2023-05-12T08:30:24.955Z,100845.25
2023-05-12T08:32:51.652Z,100831.22
2023-05-12T08:35:18.365Z,100815.75
2023-05-12T08:37:46.862Z,100849.19
2023-05-12T08:40:21.345Z,100837.53
2023-05-12T08:42:52.950Z,100830.00
2023-05-12T08:45:19.674Z,100845.47
2023-05-12T08:47:46.608Z,100842.22
2023-05-12T08:50:16.717Z,100851.94
2023-05-12T08:52:43.793Z,100851.63
2023-05-12T08:55:12.392Z,100847.72
2023-05-12T08:57:40.406Z,100861.19
2023-05-12T09:00:08.333Z,100848.63
2023-05-12T09:02:51.333Z,100856.88
2023-05-12T09:05:19.556Z,100854.78
2023-05-12T09:07:49.513Z,100851.88
2023-05-12T09:10:33.788Z,100835.06
2023-05-12T09:13:04.522Z,100856.91
2023-05-12T09:15:35.577Z,100861.13
2023-05-12T09:18:02.202Z,100863.47
2023-05-12T09:20:31.682Z,100858.47
2023-05-12T09:22:58.970Z,100859.97
2023-05-12T09:25:26.838Z,100858.06
2023-05-12T09:27:55.511Z,100863.94
2023-05-12T09:30:30.110Z,100860.09
2023-05-12T09:33:05.704Z,100859.66
2023-05-12T09:35:32.322Z,100856.81
2023-05-12T09:38:05.864Z,100835.78
2023-05-12T09:40:34.266Z,100855.78
2023-05-12T09:43:00.997Z,100829.69
2023-05-12T09:45:27.717Z,100846.97
2023-05-12T09:47:54.581Z,100850.66
2023-05-12T09:50:21.582Z,100843.44
2023-05-12T09:52:50.368Z,100847.25
2023-05-12T09:55:16.891Z,100849.41
2023-05-12T09:57:45.461Z,100856.94
2023-05-12T10:00:32.812Z,100834.38
2023-05-12T10:03:03.433Z,100853.25
2023-05-12T10:05:31.025Z,100823.06
2023-05-12T10:08:00.578Z,100839.78
2023-05-12T10:10:28.392Z,100854.13
2023-05-12T10:12:56.724Z,100859.38
2023-05-12T10:15:24.281Z,100846.59
2023-05-12T10:17:53.764Z,100849.50
2023-05-12T10:20:21.320Z,100857.25
2023-05-12T10:22:49.182Z,100849.84
2023-05-12T10:25:17.464Z,100859.81
2023-05-12T10:27:44.793Z,100854.25
2023-05-12T10:30:14.300Z,100847.28
2023-05-12T10:32:41.428Z,100819.16
2023-05-12T10:35:09.028Z,100725.06
2023-05-12T10:37:36.342Z,100849.25
2023-05-12T10:40:03.513Z,100849.38
2023-05-12T10:42:38.106Z,100823.88
2023-05-12T10:45:16.454Z,100849.63
2023-05-12T10:47:43.390Z,100850.38
2023-05-12T10:50:10.606Z,100847.72
2023-05-12T10:52:37.194Z,100846.88
2023-05-12T10:55:05.081Z,100843.78
2023-05-12T10:57:32.963Z,100847.34
2023-05-12T11:00:01.544Z,100840.06
2023-05-12T11:02:32.525Z,100830.81
2023-05-12T11:05:01.916Z,100849.47
2023-05-12T11:07:30.847Z,100842.66
2023-05-12T11:10:01.272Z,100841.50
2023-05-12T11:12:30.733Z,100842.16
2023-05-12T11:14:59.564Z,100842.00
2023-05-12T11:17:26.122Z,100841.38
2023-05-12T11:19:54.312Z,100846.75
2023-05-12T11:22:22.033Z,100842.84
2023-05-12T11:24:49.633Z,100851.31
2023-05-12T11:27:17.668Z,100854.00
2023-05-12T11:29:45.482Z,100850.53
2023-05-12T11:32:12.399Z,100852.03
2023-05-12T11:34:39.173Z,100850.66
2023-05-12T11:37:07.131Z,100841.00
2023-05-12T11:39:33.800Z,100850.94
2023-05-12T11:42:12.224Z,100848.47
2023-05-12T11:44:46.661Z,100814.81
2023-05-12T11:47:14.056Z,100854.91
2023-05-12T11:49:46.861Z,100852.88
2023-05-12T11:52:15.252Z,100839.00
2023-05-12T11:54:48.245Z,100845.97
2023-05-12T11:57:25.093Z,100856.50
2023-05-12T11:59:57.222Z,100851.97
2023-05-12T12:02:23.863Z,100855.06
2023-05-12T12:04:50.578Z,100853.59
2023-05-12T12:07:28.708Z,100860.19
2023-05-12T12:09:55.561Z,100858.16
2023-05-12T12:12:22.427Z,100860.44
2023-05-12T12:14:51.493Z,100831.00
2023-05-12T12:17:18.066Z,100865.44
2023-05-12T12:19:44.676Z,100866.09
2023-05-12T12:22:11.339Z,100865.25
2023-05-12T12:24:39.282Z,100826.88
2023-05-12T12:27:05.869Z,100803.84
2023-05-12T12:29:32.681Z,100869.00
2023-05-12T12:31:59.285Z,100869.19
2023-05-12T12:34:25.821Z,100869.59
2023-05-12T12:36:52.440Z,100843.03
2023-05-12T12:39:20.050Z,100872.75
2023-05-12T12:41:48.394Z,100870.50
2023-05-12T12:44:15.295Z,100868.72
2023-05-12T12:46:41.948Z,100877.44
2023-05-12T12:49:08.661Z,100865.47
2023-05-12T12:51:45.119Z,100872.75
2023-05-12T12:54:13.303Z,100870.66
2023-05-12T12:56:39.838Z,100836.81
2023-05-12T12:59:07.843Z,100884.41
2023-05-12T13:01:34.431Z,100881.72
2023-05-12T13:04:01.396Z,100884.78
2023-05-12T13:06:28.166Z,100878.19
2023-05-12T13:08:54.802Z,100884.41
2023-05-12T13:11:21.399Z,100882.94
2023-05-12T13:13:47.973Z,100881.06
2023-05-12T13:16:15.974Z,100887.69
2023-05-12T13:18:42.754Z,100886.84
2023-05-12T13:21:09.340Z,100882.50
2023-05-12T13:23:35.957Z,100889.78
2023-05-12T13:26:02.513Z,100887.50
2023-05-12T13:28:29.137Z,100891.25
2023-05-12T13:30:55.852Z,100885.44
2023-05-12T13:33:23.862Z,100888.13
2023-05-12T13:35:50.426Z,100892.69
2023-05-12T13:38:17.030Z,100897.06
2023-05-12T13:40:43.602Z,100894.41
2023-05-12T13:43:10.233Z,100894.97
2023-05-12T13:45:36.738Z,100884.22
2023-05-12T13:48:03.481Z,100886.28
2023-05-12T13:50:33.412Z,100890.78
2023-05-12T13:53:00.696Z,100888.47
2023-05-12T13:55:27.575Z,100882.41
2023-05-12T13:57:54.226Z,100838.91
2023-05-12T14:00:21.285Z,100890.22
2023-05-12T14:02:48.049Z,100882.75
2023-05-12T14:05:14.900Z,100887.09
2023-05-12T14:07:42.886Z,100887.09
2023-05-12T14:10:10.558Z,100888.06
2023-05-12T14:12:37.196Z,100884.31
2023-05-12T14:15:20.050Z,100882.22
2023-05-12T14:17:51.093Z,100868.28
2023-05-12T14:20:17.654Z,100869.13
2023-05-12T14:22:45.750Z,100888.44
2023-05-12T14:25:12.305Z,100883.84
2023-05-12T14:27:38.879Z,100879.66
2023-05-12T14:30:06.874Z,100887.28
2023-05-12T14:32:33.650Z,100888.25
2023-05-12T14:35:00.253Z,100892.16
2023-05-12T14:37:26.889Z,100886.16
2023-05-12T14:39:54.829Z,100884.69
2023-05-12T14:42:21.727Z,100869.47
2023-05-12T14:44:48.257Z,100887.78
2023-05-12T14:47:14.848Z,100890.75
2023-05-12T14:49:42.379Z,100885.81
2023-05-12T14:52:09.998Z,100893.50
2023-05-12T14:54:36.839Z,100896.25
2023-05-12T14:57:04.870Z,100894.41
2023-05-12T14:59:31.397Z,100903.81
2023-05-12T15:01:57.999Z,100899.09
2023-05-12T15:04:25.050Z,100896.91
2023-05-12T15:06:51.594Z,100899.00
2023-05-12T15:09:18.106Z,100868.94
2023-05-12T15:11:44.696Z,100880.38
2023-05-12T15:14:12.588Z,100897.84
2023-05-12T15:16:39.257Z,100896.84
2023-05-12T15:19:05.812Z,100894.22
2023-05-12T15:21:32.647Z,100897.56
2023-05-12T15:24:00.216Z,100897.34
2023-05-12T15:26:33.561Z,100907.03
2023-05-12T15:29:01.854Z,100907.59
2023-05-12T15:31:30.311Z,100909.13
2023-05-12T15:33:57.035Z,100906.50
2023-05-12T15:36:23.651Z,100914.88
2023-05-12T15:38:52.289Z,100912.84
2023-05-12T15:41:18.894Z,100911.94
2023-05-12T15:43:45.523Z,100910.44
2023-05-12T15:46:12.120Z,100911.38
2023-05-12T15:48:40.190Z,100910.94
2023-05-12T15:51:08.007Z,100919.00
2023-05-12T15:53:34.703Z,100914.66
2023-05-12T15:56:01.723Z,100908.19
2023-05-12T15:58:28.686Z,100906.78
2023-05-12T16:00:55.644Z,100902.06
2023-05-12T16:03:22.931Z,100901.75
2023-05-12T16:05:51.238Z,100888.19
2023-05-12T16:08:18.001Z,100895.28
2023-05-12T16:10:44.878Z,100888.97
2023-05-12T16:13:11.596Z,100889.63
2023-05-12T16:15:38.148Z,100889.56
2023-05-12T16:18:06.982Z,100848.78
2023-05-12T16:20:35.067Z,100894.13
2023-05-12T16:23:03.308Z,100891.78
2023-05-12T16:25:30.069Z,100901.09
2023-05-12T16:27:56.597Z,100893.97
2023-05-12T16:30:23.376Z,100902.28
2023-05-12T16:32:51.465Z,100897.50
2023-05-12T16:35:18.171Z,100900.56
2023-05-12T16:37:44.800Z,100894.97
2023-05-12T16:40:13.552Z,100897.88
2023-05-12T16:42:40.127Z,100903.28
2023-05-12T16:45:07.901Z,100883.41
2023-05-12T16:47:34.612Z,100874.22
2023-05-12T16:50:01.396Z,100895.84
2023-05-12T16:52:27.913Z,100897.31
2023-05-12T16:54:55.440Z,100903.06
2023-05-12T16:57:23.514Z,100878.91
2023-05-12T16:59:50.107Z,100878.13
2023-05-12T17:02:16.994Z,100906.75
2023-05-12T17:04:43.688Z,100915.38
2023-05-12T17:07:10.690Z,100909.16
2023-05-12T17:09:37.273Z,100925.63
2023-05-12T17:12:04.406Z,100914.50
2023-05-12T17:14:32.419Z,100918.34
2023-05-12T17:17:00.149Z,100919.00
2023-05-12T17:19:26.965Z,100925.13
2023-05-12T17:21:53.488Z,100910.81
2023-05-12T17:24:19.994Z,100918.75
2023-05-12T17:26:46.526Z,100932.47
2023-05-12T17:29:13.169Z,100902.25
2023-05-12T17:31:41.069Z,100931.28
2023-05-12T17:34:07.709Z,100931.28
2023-05-12T17:36:34.654Z,100848.19
2023-05-12T17:39:01.216Z,100942.41
2023-05-12T17:41:29.218Z,100916.94
2023-05-12T17:43:56.139Z,100936.06
2023-05-12T17:46:22.758Z,100935.00
2023-05-12T17:48:50.726Z,100945.16
2023-05-12T17:51:17.309Z,100958.84
2023-05-12T17:53:43.915Z,100961.94
2023-05-12T17:56:10.617Z,100963.09
2023-05-12T17:58:37.175Z,100967.22
2023-05-12T18:01:03.802Z,100958.31
2023-05-12T18:03:30.867Z,100977.13
2023-05-12T18:05:58.871Z,100949.72
2023-05-12T18:08:25.410Z,100984.66
2023-05-12T18:10:52.009Z,100960.75
2023-05-12T18:13:18.746Z,100987.03
2023-05-12T18:15:45.259Z,100997.75
2023-05-12T18:18:12.101Z,101005.63
2023-05-12T18:20:38.691Z,100998.34
2023-05-12T18:23:06.576Z,101008.75
2023-05-12T18:25:33.152Z,101006.69
2023-05-12T18:28:00.196Z,101002.97
2023-05-12T18:30:28.046Z,101005.53
2023-05-12T18:32:54.718Z,101011.78
2023-05-12T18:35:21.901Z,101014.50
2023-05-12T18:37:48.722Z,101017.31
2023-05-12T18:40:16.764Z,100996.44
2023-05-12T18:42:43.468Z,101014.16
2023-05-12T18:45:11.030Z,101019.75
2023-05-12T18:47:37.689Z,101022.09
2023-05-12T18:50:04.890Z,100999.47
2023-05-12T18:52:31.472Z,101029.16
2023-05-12T18:54:57.987Z,101025.22
2023-05-12T18:57:25.915Z,101032.94
2023-05-12T18:59:52.773Z,101035.53
2023-05-12T19:02:19.343Z,101029.38
2023-05-12T19:04:45.917Z,101046.75
2023-05-12T19:07:12.469Z,101045.09
2023-05-12T19:09:39.024Z,101054.09
2023-05-12T19:12:06.606Z,101056.44
2023-05-12T19:14:34.453Z,101058.78
2023-05-12T19:17:01.106Z,101057.28
2023-05-12T19:19:27.664Z,101038.09
2023-05-12T19:21:54.746Z,101060.44
2023-05-12T19:24:25.357Z,101041.06
2023-05-12T19:26:52.725Z,101050.38
2023-05-12T19:29:19.257Z,101049.69
2023-05-12T19:31:47.444Z,101049.81
2023-05-12T19:34:14.042Z,101061.78
2023-05-12T19:36:40.634Z,101076.13
2023-05-12T19:39:07.186Z,101073.91
2023-05-12T19:41:33.784Z,101044.16
2023-05-12T19:44:00.322Z,101061.81
2023-05-12T19:46:27.080Z,101041.09
2023-05-12T19:48:54.960Z,101066.94
2023-05-12T19:51:21.620Z,101069.94
2023-05-12T19:53:48.159Z,101081.69
2023-05-12T19:56:14.742Z,101074.31
2023-05-12T19:58:41.391Z,101070.31
2023-05-12T20:01:08.099Z,101081.28
2023-05-12T20:03:34.693Z,101073.75
2023-05-12T20:06:03.056Z,101081.53
2023-05-12T20:08:29.652Z,101076.38
2023-05-12T20:10:56.281Z,101083.00
2023-05-12T20:13:22.828Z,101083.63
2023-05-12T20:15:49.566Z,101085.06
2023-05-12T20:18:16.128Z,101093.66
2023-05-12T20:20:43.577Z,101066.78
2023-05-12T20:23:11.648Z,101095.25
2023-05-12T20:25:38.402Z,101092.06
2023-05-12T20:28:05.037Z,101094.03
2023-05-12T20:30:31.666Z,101099.69
2023-05-12T20:32:58.229Z,101104.63
2023-05-12T20:35:24.952Z,101092.22
2023-05-12T20:37:51.474Z,101102.41
2023-05-12T20:40:19.516Z,101098.91
2023-05-12T20:42:46.269Z,101099.38
2023-05-12T20:45:13.023Z,101105.69
2023-05-12T20:47:39.693Z,101104.59
2023-05-12T20:50:07.332Z,101104.47
2023-05-12T20:52:36.074Z,101097.63
2023-05-12T20:55:02.817Z,101102.25
2023-05-12T20:57:30.702Z,101098.75
2023-05-12T20:59:57.326Z,101099.75
2023-05-12T21:02:24.247Z,101111.53
2023-05-12T21:04:51.467Z,101095.03
2023-05-12T21:07:18.464Z,101068.50
2023-05-12T21:09:45.764Z,101103.09
2023-05-12T21:12:12.476Z,101109.25
2023-05-12T21:14:41.588Z,101101.94
2023-05-12T21:17:09.288Z,101082.94
2023-05-12T21:19:36.615Z,101104.06
2023-05-12T21:22:03.392Z,101107.78
2023-05-12T21:24:30.074Z,101109.78
2023-05-12T21:26:56.600Z,101108.56
2023-05-12T21:29:23.226Z,101093.53
2023-05-12T21:31:51.294Z,101105.84
2023-05-12T21:34:17.928Z,101114.22
2023-05-12T21:36:44.538Z,101113.84
2023-05-12T21:39:11.330Z,101109.50
2023-05-12T21:41:37.951Z,101110.78
2023-05-12T21:44:04.854Z,101057.50
2023-05-12T21:46:31.796Z,101112.63
2023-05-12T21:48:59.908Z,101115.81
2023-05-12T21:51:26.572Z,101122.28
2023-05-12T21:53:53.227Z,101121.56
2023-05-12T21:56:19.747Z,101126.19
2023-05-12T21:58:46.426Z,101095.81
2023-05-12T22:01:13.065Z,101129.16
2023-05-12T22:03:40.188Z,101135.13
2023-05-12T22:06:08.212Z,101133.75
2023-05-12T22:08:35.199Z,101134.03
2023-05-12T22:11:01.778Z,101104.75
2023-05-12T22:13:28.393Z,101137.97
2023-05-12T22:15:54.951Z,101135.75
2023-05-12T22:18:21.688Z,101138.69
2023-05-12T22:20:48.236Z,101137.16
2023-05-12T22:23:16.209Z,101145.56
2023-05-12T22:25:42.774Z,101144.31
2023-05-12T22:28:09.441Z,101136.91
2023-05-12T22:30:35.986Z,101131.06
2023-05-12T22:33:02.609Z,101144.75
2023-05-12T22:35:29.302Z,101105.97
2023-05-12T22:37:55.894Z,101111.00
2023-05-12T22:40:24.000Z,101144.75
2023-05-12T22:42:50.555Z,101143.25
2023-05-12T22:45:17.051Z,101129.69
2023-05-12T22:47:43.706Z,101148.41
2023-05-12T22:50:10.833Z,101145.88
2023-05-12T22:52:37.395Z,101141.44
2023-05-12T22:55:04.431Z,101139.75
2023-05-12T22:57:32.422Z,101119.66
2023-05-12T22:59:58.978Z,101130.25
2023-05-12T23:02:25.562Z,101141.69
2023-05-12T23:04:52.212Z,101114.16
2023-05-12T23:07:18.849Z,101138.09
2023-05-12T23:09:45.384Z,101132.50
2023-05-12T23:12:12.164Z,101136.81
2023-05-12T23:14:40.038Z,101141.81
2023-05-12T23:17:06.722Z,101136.88
2023-05-12T23:19:33.331Z,101127.38
2023-05-12T23:21:59.960Z,101126.13
2023-05-12T23:24:26.503Z,101133.22
2023-05-12T23:26:53.138Z,101134.47
2023-05-12T23:29:19.789Z,101132.25
2023-05-12T23:31:47.896Z,101128.88
2023-05-12T23:34:14.452Z,101132.50
2023-05-12T23:36:41.014Z,101134.47
2023-05-12T23:39:07.509Z,101130.41
2023-05-12T23:41:34.145Z,101072.72
2023-05-12T23:44:00.685Z,101132.63
2023-05-12T23:46:27.424Z,101129.97
2023-05-12T23:48:55.812Z,101057.47
2023-05-12T23:51:22.466Z,101115.28
2023-05-12T23:53:49.037Z,101127.84
2023-05-12T23:56:15.911Z,101124.78
2023-05-12T23:58:42.433Z,101128.41
